createdAt,value
2019-02-19T00:00:18.547Z,0
2019-02-19T00:01:21.559Z,0
2019-02-19T00:02:24.557Z,0
2019-02-19T00:03:27.567Z,0
2019-02-19T00:04:30.561Z,0
2019-02-19T00:05:33.555Z,0
2019-02-19T00:06:36.567Z,0
2019-02-19T00:07:39.558Z,0
2019-02-19T00:08:42.561Z,0
2019-02-19T00:09:45.551Z,0
2019-02-19T00:10:48.557Z,0
2019-02-19T00:11:51.552Z,0
2019-02-19T00:12:54.562Z,0
2019-02-19T00:13:57.568Z,0
2019-02-19T00:15:08.004Z,0
2019-02-19T00:16:03.562Z,0
2019-02-19T00:17:06.584Z,0
2019-02-19T00:18:09.567Z,0
2019-02-19T00:19:12.553Z,0
2019-02-19T00:20:15.554Z,0
2019-02-19T00:21:18.566Z,0
2019-02-19T00:22:21.566Z,0
2019-02-19T00:23:24.561Z,0
2019-02-19T00:24:27.563Z,0
2019-02-19T00:25:30.574Z,0
2019-02-19T00:26:33.570Z,0
2019-02-19T00:27:36.564Z,0
2019-02-19T00:28:39.556Z,0
2019-02-19T00:29:42.566Z,0
2019-02-19T00:30:45.571Z,0
2019-02-19T00:31:48.567Z,0
2019-02-19T00:32:51.559Z,0
2019-02-19T00:33:54.556Z,0
2019-02-19T00:34:57.682Z,0
2019-02-19T00:36:00.568Z,0
2019-02-19T00:37:03.552Z,0
2019-02-19T00:38:06.572Z,0
2019-02-19T00:39:09.572Z,0
2019-02-19T00:40:12.569Z,0
2019-02-19T00:41:15.566Z,0
2019-02-19T00:42:18.609Z,0
2019-02-19T00:43:21.564Z,0
2019-02-19T00:44:24.558Z,0
2019-02-19T00:45:27.560Z,0
2019-02-19T00:46:30.569Z,0
2019-02-19T00:47:33.568Z,0
2019-02-19T00:48:36.573Z,0
2019-02-19T00:49:39.573Z,0
2019-02-19T00:50:42.573Z,0
2019-02-19T00:51:45.568Z,0
2019-02-19T00:52:48.577Z,0
2019-02-19T00:53:51.567Z,0
2019-02-19T00:54:54.560Z,0
2019-02-19T00:55:57.579Z,0
2019-02-19T00:57:00.567Z,0
2019-02-19T00:58:03.578Z,0
2019-02-19T00:59:06.577Z,0
2019-02-19T01:00:09.571Z,0
2019-02-19T01:01:12.564Z,0
2019-02-19T01:02:15.575Z,0
2019-02-19T01:03:18.562Z,0
2019-02-19T01:04:21.573Z,0
2019-02-19T01:05:24.573Z,0
2019-02-19T01:06:27.612Z,0
2019-02-19T01:07:30.584Z,0
2019-02-19T01:08:33.568Z,0
2019-02-19T01:09:36.563Z,0
2019-02-19T01:10:39.564Z,0
2019-02-19T01:11:42.567Z,0
2019-02-19T01:12:45.568Z,0
2019-02-19T01:13:48.569Z,0
2019-02-19T01:14:51.579Z,0
2019-02-19T01:15:54.569Z,0
2019-02-19T01:16:57.577Z,0
2019-02-19T01:18:00.579Z,0
2019-02-19T01:19:03.578Z,0
2019-02-19T01:20:06.577Z,0
2019-02-19T01:21:09.578Z,0
2019-02-19T01:22:12.577Z,0
2019-02-19T01:23:15.569Z,0
2019-02-19T01:24:18.572Z,0
2019-02-19T01:25:21.574Z,0
2019-02-19T01:26:24.578Z,0
2019-02-19T01:27:27.583Z,0
2019-02-19T01:28:30.568Z,0
2019-02-19T01:29:33.588Z,0
2019-02-19T01:30:36.577Z,0
2019-02-19T01:31:39.578Z,0
2019-02-19T01:32:42.573Z,0
2019-02-19T01:33:45.573Z,0
2019-02-19T01:34:48.568Z,0
2019-02-19T01:35:51.579Z,0
2019-02-19T01:36:54.587Z,0
2019-02-19T01:37:58.569Z,0
2019-02-19T01:39:01.573Z,0
2019-02-19T01:40:04.582Z,0
2019-02-19T01:41:07.575Z,0
2019-02-19T01:42:10.573Z,0
2019-02-19T01:43:13.567Z,0
2019-02-19T01:44:16.583Z,0
2019-02-19T01:45:19.570Z,0
2019-02-19T01:46:22.576Z,0
2019-02-19T01:47:25.642Z,0
2019-02-19T01:48:28.569Z,0
2019-02-19T01:49:31.573Z,0
2019-02-19T01:50:34.569Z,0
2019-02-19T01:51:37.574Z,0
2019-02-19T01:52:40.575Z,0
2019-02-19T01:53:43.574Z,0
2019-02-19T01:54:46.629Z,0
2019-02-19T01:55:49.573Z,0
2019-02-19T01:56:52.569Z,0
2019-02-19T01:57:55.579Z,0
2019-02-19T01:58:58.595Z,0
2019-02-19T02:00:01.588Z,0
2019-02-19T02:01:04.574Z,0
2019-02-19T02:02:07.578Z,0
2019-02-19T02:03:10.582Z,0
2019-02-19T02:04:13.578Z,0
2019-02-19T02:05:16.578Z,0
2019-02-19T02:06:19.585Z,0
2019-02-19T02:07:22.575Z,0
2019-02-19T02:08:25.585Z,0
2019-02-19T02:09:28.579Z,0
2019-02-19T02:10:31.584Z,0
2019-02-19T02:11:34.589Z,0
2019-02-19T02:12:37.584Z,0
2019-02-19T02:13:40.588Z,0
2019-02-19T02:14:43.579Z,0
2019-02-19T02:15:46.594Z,0
2019-02-19T02:16:49.570Z,0
2019-02-19T02:17:52.578Z,0
2019-02-19T02:18:55.574Z,0
2019-02-19T02:19:58.585Z,0
2019-02-19T02:21:01.591Z,0
2019-02-19T02:22:04.589Z,0
2019-02-19T02:23:07.589Z,0
2019-02-19T02:24:10.589Z,0
2019-02-19T02:25:13.588Z,0
2019-02-19T02:26:16.591Z,0
2019-02-19T02:27:19.594Z,0
2019-02-19T02:28:22.578Z,0
2019-02-19T02:29:25.590Z,0
2019-02-19T02:30:28.584Z,0
2019-02-19T02:31:31.586Z,0
2019-02-19T02:32:34.584Z,0
2019-02-19T02:33:37.581Z,0
2019-02-19T02:34:40.593Z,0
2019-02-19T02:35:43.591Z,0
2019-02-19T02:36:46.576Z,0
2019-02-19T02:37:49.580Z,0
2019-02-19T02:38:52.595Z,0
2019-02-19T02:39:55.583Z,0
2019-02-19T02:40:58.577Z,0
2019-02-19T02:42:01.585Z,0
2019-02-19T02:43:04.582Z,0
2019-02-19T02:44:07.584Z,0
2019-02-19T02:45:10.579Z,0
2019-02-19T02:46:13.596Z,0
2019-02-19T02:47:16.598Z,0
2019-02-19T02:48:19.591Z,0
2019-02-19T02:49:22.595Z,0
2019-02-19T02:50:25.580Z,0
2019-02-19T02:51:28.604Z,0
2019-02-19T02:52:31.593Z,0
2019-02-19T02:53:34.615Z,0
2019-02-19T02:54:37.592Z,0
2019-02-19T02:55:40.585Z,0
2019-02-19T02:56:43.583Z,0
2019-02-19T02:57:46.582Z,0
2019-02-19T02:58:49.586Z,0
2019-02-19T02:59:52.609Z,0
2019-02-19T03:00:55.595Z,0
2019-02-19T03:01:58.592Z,0
2019-02-19T03:03:01.587Z,0
2019-02-19T03:04:04.587Z,0
2019-02-19T03:05:07.584Z,0
2019-02-19T03:06:10.600Z,0
2019-02-19T03:07:13.584Z,0
2019-02-19T03:08:16.590Z,0
2019-02-19T03:09:19.586Z,0
2019-02-19T03:10:22.601Z,0
2019-02-19T03:11:25.682Z,0
2019-02-19T03:12:28.587Z,0
2019-02-19T03:13:32.582Z,0
2019-02-19T03:14:35.602Z,0
2019-02-19T03:15:38.587Z,0
2019-02-19T03:16:41.582Z,0
2019-02-19T03:17:44.601Z,0
2019-02-19T03:18:47.591Z,0
2019-02-19T03:19:50.591Z,0
2019-02-19T03:20:53.625Z,0
2019-02-19T03:21:56.598Z,0
2019-02-19T03:22:59.590Z,0
2019-02-19T03:24:02.590Z,0
2019-02-19T03:25:05.588Z,0
2019-02-19T03:26:08.599Z,0
2019-02-19T03:27:11.587Z,0
2019-02-19T03:28:14.614Z,0
2019-02-19T03:29:17.592Z,0
2019-02-19T03:30:20.588Z,0
2019-02-19T03:31:23.592Z,0
2019-02-19T03:32:26.605Z,0
2019-02-19T03:33:29.608Z,0
2019-02-19T03:34:32.596Z,0
2019-02-19T03:35:35.647Z,0
2019-02-19T03:36:38.599Z,0
2019-02-19T03:37:41.599Z,0
2019-02-19T03:38:44.584Z,0
2019-02-19T03:39:47.593Z,0
2019-02-19T03:40:50.595Z,0
2019-02-19T03:41:53.606Z,0
2019-02-19T03:42:56.607Z,0
2019-02-19T03:43:59.591Z,0
2019-02-19T03:45:02.594Z,0
2019-02-19T03:46:11.778Z,0
2019-02-19T03:47:08.608Z,0
2019-02-19T03:48:11.609Z,0
2019-02-19T03:49:14.596Z,0
2019-02-19T03:50:17.591Z,0
2019-02-19T03:51:20.597Z,0
2019-02-19T03:52:23.604Z,0
2019-02-19T03:53:26.591Z,0
2019-02-19T03:54:29.595Z,0
2019-02-19T03:55:32.595Z,0
2019-02-19T03:56:35.616Z,0
2019-02-19T03:57:38.597Z,0
2019-02-19T03:58:41.610Z,0
2019-02-19T03:59:44.604Z,0
2019-02-19T04:00:47.627Z,0
2019-02-19T04:01:51.601Z,0
2019-02-19T04:02:54.605Z,0
2019-02-19T04:03:57.596Z,0
2019-02-19T04:05:00.591Z,0
2019-02-19T04:06:03.601Z,0
2019-02-19T04:07:06.647Z,0
2019-02-19T04:08:09.592Z,0
2019-02-19T04:09:12.596Z,0
2019-02-19T04:10:15.592Z,0
2019-02-19T04:11:18.602Z,0
2019-02-19T04:12:21.605Z,0
2019-02-19T04:13:24.597Z,0
2019-02-19T04:14:27.597Z,0
2019-02-19T04:15:30.604Z,0
2019-02-19T04:16:33.607Z,0
2019-02-19T04:17:36.603Z,0
2019-02-19T04:18:39.607Z,0
2019-02-19T04:19:42.612Z,0
2019-02-19T04:20:45.608Z,0
2019-02-19T04:21:48.601Z,0
2019-02-19T04:22:51.615Z,0
2019-02-19T04:23:54.600Z,0
2019-02-19T04:24:57.615Z,0
2019-02-19T04:26:00.600Z,0
2019-02-19T04:27:03.671Z,0
2019-02-19T04:28:06.602Z,0
2019-02-19T04:29:09.610Z,0
2019-02-19T04:30:12.602Z,0
2019-02-19T04:31:15.607Z,0
2019-02-19T04:32:18.631Z,0
2019-02-19T04:33:21.637Z,0
2019-02-19T04:34:24.626Z,0
2019-02-19T04:35:27.608Z,0
2019-02-19T04:36:30.597Z,0
2019-02-19T04:37:33.608Z,0
2019-02-19T04:38:36.611Z,0
2019-02-19T04:39:39.613Z,0
2019-02-19T04:40:42.652Z,0
2019-02-19T04:41:45.616Z,0
2019-02-19T04:42:48.609Z,0
2019-02-19T04:43:51.596Z,0
2019-02-19T04:44:54.617Z,0
2019-02-19T04:45:57.627Z,0
2019-02-19T04:47:00.598Z,0
2019-02-19T04:48:03.602Z,0
2019-02-19T04:49:06.618Z,0
2019-02-19T04:50:09.617Z,0
2019-02-19T04:51:12.607Z,0
2019-02-19T04:52:15.612Z,0
2019-02-19T04:53:18.611Z,0
2019-02-19T04:54:21.606Z,0
2019-02-19T04:55:24.625Z,0
2019-02-19T04:56:27.620Z,0
2019-02-19T04:57:30.602Z,0
2019-02-19T04:58:33.616Z,0
2019-02-19T04:59:36.607Z,0
2019-02-19T05:00:39.618Z,0
2019-02-19T05:01:42.641Z,0
2019-02-19T05:02:45.622Z,0
2019-02-19T05:03:48.605Z,0
2019-02-19T05:04:51.617Z,0
2019-02-19T05:05:54.609Z,0
2019-02-19T05:06:57.605Z,0
2019-02-19T05:08:00.615Z,0
2019-02-19T05:09:03.615Z,0
2019-02-19T05:10:06.614Z,0
2019-02-19T05:11:09.607Z,0
2019-02-19T05:12:12.627Z,0
2019-02-19T05:13:15.716Z,0
2019-02-19T05:14:18.626Z,0
2019-02-19T05:15:21.611Z,0
2019-02-19T05:16:24.624Z,0
2019-02-19T05:17:27.607Z,0
2019-02-19T05:18:30.623Z,0
2019-02-19T05:19:33.619Z,0
2019-02-19T05:20:36.622Z,0
2019-02-19T05:21:39.621Z,0
2019-02-19T05:22:42.611Z,0
2019-02-19T05:23:45.614Z,0
2019-02-19T05:24:49.608Z,0
2019-02-19T05:25:52.628Z,0
2019-02-19T05:26:55.609Z,0
2019-02-19T05:27:58.623Z,0
2019-02-19T05:29:01.624Z,0
2019-02-19T05:30:04.623Z,0
2019-02-19T05:31:07.617Z,0
2019-02-19T05:32:10.612Z,0
2019-02-19T05:33:13.740Z,0
2019-02-19T05:34:16.607Z,0
2019-02-19T05:35:19.627Z,0
2019-02-19T05:36:22.625Z,0
2019-02-19T05:37:25.622Z,0
2019-02-19T05:38:28.623Z,0
2019-02-19T05:39:31.618Z,0
2019-02-19T05:40:34.608Z,0
2019-02-19T05:41:37.661Z,0
2019-02-19T05:42:40.613Z,0
2019-02-19T05:43:43.626Z,0
2019-02-19T05:44:46.623Z,0
2019-02-19T05:45:49.614Z,0
2019-02-19T05:46:52.621Z,0
2019-02-19T05:47:55.612Z,0
2019-02-19T05:48:58.625Z,0
2019-02-19T05:50:01.629Z,0
2019-02-19T05:51:04.623Z,0
2019-02-19T05:52:07.639Z,0
2019-02-19T05:53:10.648Z,4
2019-02-19T05:54:13.675Z,4
2019-02-19T05:55:16.628Z,0
2019-02-19T05:56:19.619Z,0
2019-02-19T05:57:22.622Z,4
2019-02-19T05:58:25.628Z,0
2019-02-19T05:59:28.639Z,4
2019-02-19T06:00:31.647Z,4
2019-02-19T06:01:34.631Z,4
2019-02-19T06:02:37.663Z,4
2019-02-19T06:03:40.629Z,4
2019-02-19T06:04:43.625Z,8
2019-02-19T06:05:46.632Z,12
2019-02-19T06:06:49.625Z,16
2019-02-19T06:07:52.632Z,12
2019-02-19T06:08:55.626Z,16
2019-02-19T06:09:58.629Z,20
2019-02-19T06:11:01.640Z,24
2019-02-19T06:12:04.624Z,28
2019-02-19T06:13:07.617Z,40
2019-02-19T06:14:10.648Z,48
2019-02-19T06:15:13.638Z,56
2019-02-19T06:16:16.624Z,64
2019-02-19T06:17:19.640Z,76
2019-02-19T06:18:22.632Z,92
2019-02-19T06:19:25.644Z,108
2019-02-19T06:20:28.636Z,128
2019-02-19T06:21:31.632Z,156
2019-02-19T06:22:34.637Z,176
2019-02-19T06:23:37.639Z,192
2019-02-19T06:24:40.630Z,212
2019-02-19T06:25:43.668Z,220
2019-02-19T06:26:46.644Z,236
2019-02-19T06:27:49.632Z,244
2019-02-19T06:28:52.630Z,244
2019-02-19T06:29:55.627Z,248
2019-02-19T06:30:58.632Z,248
2019-02-19T06:32:01.633Z,272
2019-02-19T06:33:04.642Z,296
2019-02-19T06:34:07.643Z,320
2019-02-19T06:35:10.637Z,336
2019-02-19T06:36:13.715Z,344
2019-02-19T06:37:16.628Z,356
2019-02-19T06:38:19.623Z,364
2019-02-19T06:39:22.634Z,376
2019-02-19T06:40:25.638Z,396
2019-02-19T06:41:28.626Z,448
2019-02-19T06:42:31.635Z,516
2019-02-19T06:43:34.670Z,572
2019-02-19T06:44:37.624Z,624
2019-02-19T06:45:40.629Z,652
2019-02-19T06:46:43.649Z,684
2019-02-19T06:47:46.638Z,728
2019-02-19T06:48:49.635Z,784
2019-02-19T06:49:52.632Z,832
2019-02-19T06:50:55.628Z,904
2019-02-19T06:51:59.635Z,988
2019-02-19T06:53:02.629Z,1080
2019-02-19T06:54:05.647Z,1164
2019-02-19T06:55:08.633Z,1220
2019-02-19T06:56:11.632Z,1232
2019-02-19T06:57:14.638Z,1240
2019-02-19T06:58:17.649Z,1272
2019-02-19T06:59:20.640Z,1340
2019-02-19T07:00:23.647Z,1436
2019-02-19T07:01:26.633Z,1560
2019-02-19T07:02:29.639Z,1692
2019-02-19T07:03:32.718Z,1836
2019-02-19T07:04:35.653Z,2036
2019-02-19T07:05:38.637Z,2252
2019-02-19T07:06:41.645Z,2396
2019-02-19T07:07:44.644Z,2436
2019-02-19T07:08:47.634Z,2420
2019-02-19T07:09:50.648Z,2368
2019-02-19T07:10:53.645Z,2308
2019-02-19T07:11:56.637Z,2280
2019-02-19T07:12:59.674Z,2312
2019-02-19T07:14:02.654Z,2384
2019-02-19T07:15:05.646Z,2464
2019-02-19T07:16:08.640Z,2532
2019-02-19T07:17:15.672Z,2604
2019-02-19T07:18:14.648Z,2688
2019-02-19T07:19:17.632Z,2796
2019-02-19T07:20:20.639Z,2872
2019-02-19T07:21:23.648Z,2924
2019-02-19T07:22:26.659Z,2868
2019-02-19T07:23:29.657Z,2740
2019-02-19T07:24:32.699Z,2684
2019-02-19T07:25:35.651Z,2624
2019-02-19T07:26:38.649Z,2488
2019-02-19T07:27:41.642Z,2396
2019-02-19T07:28:44.719Z,2256
2019-02-19T07:29:47.641Z,2112
2019-02-19T07:30:50.662Z,1956
2019-02-19T07:31:53.654Z,1808
2019-02-19T07:32:56.644Z,1660
2019-02-19T07:33:59.653Z,1540
2019-02-19T07:35:02.662Z,1484
2019-02-19T07:36:05.675Z,1488
2019-02-19T07:37:08.645Z,1532
2019-02-19T07:38:11.644Z,1580
2019-02-19T07:39:14.672Z,1608
2019-02-19T07:40:17.658Z,1620
2019-02-19T07:41:20.650Z,1680
2019-02-19T07:42:23.643Z,1776
2019-02-19T07:43:26.653Z,1780
2019-02-19T07:44:29.664Z,1740
2019-02-19T07:45:32.642Z,1736
2019-02-19T07:46:35.639Z,1608
2019-02-19T07:47:38.646Z,1424
2019-02-19T07:48:41.670Z,1296
2019-02-19T07:49:44.657Z,1212
2019-02-19T07:50:47.646Z,1096
2019-02-19T07:51:50.647Z,1000
2019-02-19T07:52:53.649Z,928
2019-02-19T07:53:56.653Z,852
2019-02-19T07:54:59.676Z,772
2019-02-19T07:56:02.655Z,712
2019-02-19T07:57:05.663Z,692
2019-02-19T07:58:08.645Z,696
2019-02-19T07:59:11.650Z,704
2019-02-19T08:00:14.650Z,720
2019-02-19T08:01:17.704Z,784
2019-02-19T08:02:20.658Z,888
2019-02-19T08:03:23.655Z,996
2019-02-19T08:04:26.700Z,1104
2019-02-19T08:05:29.714Z,1240
2019-02-19T08:06:32.647Z,1312
2019-02-19T08:07:35.675Z,1268
2019-02-19T08:08:38.656Z,1240
2019-02-19T08:09:41.654Z,1272
2019-02-19T08:10:44.659Z,1272
2019-02-19T08:11:47.661Z,1260
2019-02-19T08:12:50.664Z,1216
2019-02-19T08:13:53.645Z,1168
2019-02-19T08:14:56.661Z,1232
2019-02-19T08:15:59.653Z,1436
2019-02-19T08:17:02.650Z,1656
2019-02-19T08:18:05.655Z,1832
2019-02-19T08:19:08.666Z,2048
2019-02-19T08:20:15.707Z,2132
2019-02-19T08:21:14.690Z,1972
2019-02-19T08:22:17.699Z,1768
2019-02-19T08:23:20.665Z,1912
2019-02-19T08:24:23.673Z,2484
2019-02-19T08:25:26.657Z,3236
2019-02-19T08:26:29.654Z,3656
2019-02-19T08:27:32.693Z,3740
2019-02-19T08:28:35.665Z,3684
2019-02-19T08:29:38.679Z,3544
2019-02-19T08:30:41.668Z,3496
2019-02-19T08:31:44.663Z,3620
2019-02-19T08:32:47.655Z,3480
2019-02-19T08:33:50.655Z,3048
2019-02-19T08:34:53.660Z,2664
2019-02-19T08:35:56.666Z,2604
2019-02-19T08:36:59.651Z,2688
2019-02-19T08:38:02.659Z,2656
2019-02-19T08:39:05.670Z,2532
2019-02-19T08:40:08.669Z,2508
2019-02-19T08:41:11.666Z,2544
2019-02-19T08:42:14.664Z,2692
2019-02-19T08:43:17.664Z,2740
2019-02-19T08:44:20.663Z,2532
2019-02-19T08:45:23.667Z,2316
2019-02-19T08:46:26.674Z,2204
2019-02-19T08:47:29.660Z,2384
2019-02-19T08:48:32.665Z,3128
2019-02-19T08:49:35.668Z,4244
2019-02-19T08:50:38.667Z,5664
2019-02-19T08:51:41.674Z,6784
2019-02-19T08:52:44.666Z,6568
2019-02-19T08:53:47.664Z,5672
2019-02-19T08:54:50.669Z,4904
2019-02-19T08:55:53.697Z,4416
2019-02-19T08:56:56.660Z,4048
2019-02-19T08:57:59.661Z,3936
2019-02-19T08:59:02.669Z,3672
2019-02-19T09:00:05.675Z,3484
2019-02-19T09:01:08.665Z,3440
2019-02-19T09:02:11.677Z,3440
2019-02-19T09:03:14.665Z,3376
2019-02-19T09:04:17.676Z,3192
2019-02-19T09:05:20.662Z,3040
2019-02-19T09:06:23.674Z,2872
2019-02-19T09:07:26.660Z,2664
2019-02-19T09:08:29.680Z,2612
2019-02-19T09:09:32.665Z,2632
2019-02-19T09:10:35.679Z,2752
2019-02-19T09:11:38.675Z,3004
2019-02-19T09:12:41.663Z,3196
2019-02-19T09:13:44.678Z,3468
2019-02-19T09:14:49.258Z,3928
2019-02-19T09:15:50.677Z,4424
2019-02-19T09:16:53.670Z,4824
2019-02-19T09:17:56.678Z,5820
2019-02-19T09:18:59.677Z,7220
2019-02-19T09:20:02.669Z,7388
2019-02-19T09:21:05.711Z,6472
2019-02-19T09:22:08.749Z,6136
2019-02-19T09:23:11.680Z,6144
2019-02-19T09:24:14.674Z,5712
2019-02-19T09:25:17.675Z,4848
2019-02-19T09:26:20.679Z,4132
2019-02-19T09:27:23.679Z,3716
2019-02-19T09:28:26.682Z,3428
2019-02-19T09:29:29.666Z,3312
2019-02-19T09:30:32.670Z,3360
2019-02-19T09:31:35.677Z,3356
2019-02-19T09:32:38.669Z,3676
2019-02-19T09:33:41.666Z,3764
2019-02-19T09:34:44.677Z,3744
2019-02-19T09:35:47.672Z,3832
2019-02-19T09:36:50.686Z,4796
2019-02-19T09:37:53.695Z,7392
2019-02-19T09:38:56.699Z,10716
2019-02-19T09:39:59.676Z,12836
2019-02-19T09:41:02.687Z,13460
2019-02-19T09:42:05.676Z,13676
2019-02-19T09:43:08.680Z,12320
2019-02-19T09:44:11.709Z,11272
2019-02-19T09:45:14.681Z,10396
2019-02-19T09:46:17.688Z,8192
2019-02-19T09:47:20.685Z,5636
2019-02-19T09:48:23.716Z,4256
2019-02-19T09:49:26.671Z,3504
2019-02-19T09:50:29.717Z,3140
2019-02-19T09:51:32.689Z,3276
2019-02-19T09:52:35.693Z,3468
2019-02-19T09:53:38.685Z,3556
2019-02-19T09:54:41.675Z,3744
2019-02-19T09:55:44.687Z,4044
2019-02-19T09:56:47.680Z,4900
2019-02-19T09:57:50.691Z,6680
2019-02-19T09:58:53.697Z,8560
2019-02-19T09:59:56.686Z,9888
2019-02-19T10:00:59.688Z,10564
2019-02-19T10:02:02.677Z,10368
2019-02-19T10:03:05.680Z,10040
2019-02-19T10:04:08.691Z,9344
2019-02-19T10:05:11.710Z,8032
2019-02-19T10:06:14.691Z,6444
2019-02-19T10:07:19.248Z,5864
2019-02-19T10:08:21.676Z,5908
2019-02-19T10:09:24.691Z,6176
2019-02-19T10:10:27.697Z,6148
2019-02-19T10:11:30.691Z,5324
2019-02-19T10:12:33.677Z,4488
2019-02-19T10:13:36.703Z,4440
2019-02-19T10:14:39.685Z,4856
2019-02-19T10:15:42.740Z,4928
2019-02-19T10:16:45.682Z,4808
2019-02-19T10:17:48.715Z,4744
2019-02-19T10:18:51.692Z,4416
2019-02-19T10:19:54.685Z,3980
2019-02-19T10:20:57.682Z,3892
2019-02-19T10:22:00.702Z,3912
2019-02-19T10:23:03.691Z,3804
2019-02-19T10:24:06.694Z,3628
2019-02-19T10:25:09.696Z,3472
2019-02-19T10:26:12.692Z,3412
2019-02-19T10:27:15.697Z,3308
2019-02-19T10:28:18.704Z,2968
2019-02-19T10:29:21.682Z,2568
2019-02-19T10:30:24.692Z,2292
2019-02-19T10:31:27.700Z,2220
2019-02-19T10:32:30.716Z,2304
2019-02-19T10:33:33.900Z,2360
2019-02-19T10:34:37.193Z,2412
2019-02-19T10:35:40.195Z,2480
2019-02-19T10:36:43.204Z,2640
2019-02-19T10:37:46.196Z,2856
2019-02-19T10:38:49.186Z,3112
2019-02-19T10:39:52.201Z,3600
2019-02-19T10:40:55.201Z,4012
2019-02-19T10:41:58.206Z,3924
2019-02-19T10:43:01.240Z,3512
2019-02-19T10:44:04.202Z,3216
2019-02-19T10:45:07.200Z,3008
2019-02-19T10:46:10.207Z,2956
2019-02-19T10:47:13.215Z,2956
2019-02-19T10:48:19.080Z,2924
2019-02-19T10:49:19.190Z,2768
2019-02-19T10:50:22.185Z,2612
2019-02-19T10:51:25.196Z,2500
2019-02-19T10:52:28.201Z,2356
2019-02-19T10:53:31.205Z,2312
2019-02-19T10:54:34.191Z,2536
2019-02-19T10:55:37.196Z,2836
2019-02-19T10:56:40.206Z,3036
2019-02-19T10:57:43.213Z,3172
2019-02-19T10:58:46.201Z,3456
2019-02-19T10:59:49.207Z,3664
2019-02-19T11:00:52.202Z,3672
2019-02-19T11:01:55.191Z,3644
2019-02-19T11:02:58.254Z,3720
2019-02-19T11:04:01.190Z,4348
2019-02-19T11:05:04.208Z,5552
2019-02-19T11:06:07.197Z,6628
2019-02-19T11:07:10.192Z,7024
2019-02-19T11:08:13.205Z,7092
2019-02-19T11:09:16.222Z,6776
2019-02-19T11:10:19.204Z,6504
2019-02-19T11:11:22.198Z,6464
2019-02-19T11:12:25.203Z,6708
2019-02-19T11:13:28.210Z,7116
2019-02-19T11:14:31.213Z,7324
2019-02-19T11:15:34.212Z,7268
2019-02-19T11:16:37.200Z,7208
2019-02-19T11:17:40.198Z,7180
2019-02-19T11:18:43.618Z,7292
2019-02-19T11:19:46.725Z,7376
2019-02-19T11:20:49.695Z,7256
2019-02-19T11:21:52.711Z,7172
2019-02-19T11:22:55.707Z,7560
2019-02-19T11:23:58.710Z,8452
2019-02-19T11:25:01.701Z,9252
2019-02-19T11:26:04.708Z,9944
2019-02-19T11:27:07.708Z,10180
2019-02-19T11:28:10.723Z,9812
2019-02-19T11:29:13.710Z,9412
2019-02-19T11:30:16.709Z,8836
2019-02-19T11:31:19.717Z,8220
2019-02-19T11:32:22.716Z,8000
2019-02-19T11:33:25.760Z,7740
2019-02-19T11:34:28.701Z,7336
2019-02-19T11:35:31.703Z,6980
2019-02-19T11:36:34.702Z,6712
2019-02-19T11:37:37.722Z,6500
2019-02-19T11:38:40.717Z,6724
2019-02-19T11:39:43.706Z,7068
2019-02-19T11:40:48.427Z,7428
2019-02-19T11:41:51.712Z,7940
2019-02-19T11:42:54.705Z,8272
2019-02-19T11:43:57.781Z,8532
2019-02-19T11:45:00.843Z,8676
2019-02-19T11:46:03.713Z,8616
2019-02-19T11:47:06.702Z,8356
2019-02-19T11:48:09.773Z,8200
2019-02-19T11:49:12.738Z,8132
2019-02-19T11:50:15.706Z,8264
2019-02-19T11:51:18.723Z,8588
2019-02-19T11:52:21.715Z,8348
2019-02-19T11:53:24.711Z,7572
2019-02-19T11:54:27.821Z,6824
2019-02-19T11:55:30.713Z,6296
2019-02-19T11:56:33.706Z,5952
2019-02-19T11:57:36.706Z,5776
2019-02-19T11:58:39.710Z,5736
2019-02-19T11:59:42.714Z,5684
2019-02-19T12:00:45.705Z,5712
2019-02-19T12:01:48.716Z,5764
2019-02-19T12:02:51.718Z,5716
2019-02-19T12:03:54.735Z,5476
2019-02-19T12:04:57.712Z,5356
2019-02-19T12:06:00.711Z,5568
2019-02-19T12:07:03.731Z,6116
2019-02-19T12:08:06.721Z,6624
2019-02-19T12:09:09.761Z,6908
2019-02-19T12:10:12.711Z,7276
2019-02-19T12:11:15.723Z,7784
2019-02-19T12:12:18.752Z,8364
2019-02-19T12:13:21.718Z,8720
2019-02-19T12:14:24.738Z,8788
2019-02-19T12:15:34.929Z,8756
2019-02-19T12:16:30.739Z,8956
2019-02-19T12:17:33.731Z,9412
2019-02-19T12:18:36.726Z,10076
2019-02-19T12:19:39.748Z,11000
2019-02-19T12:20:42.766Z,11984
2019-02-19T12:21:45.738Z,12824
2019-02-19T12:22:48.718Z,13232
2019-02-19T12:23:51.729Z,13168
2019-02-19T12:24:54.737Z,12968
2019-02-19T12:25:57.729Z,12912
2019-02-19T12:27:00.723Z,12856
2019-02-19T12:28:03.755Z,12392
2019-02-19T12:29:06.733Z,11636
2019-02-19T12:30:09.806Z,10880
2019-02-19T12:31:12.734Z,10336
2019-02-19T12:32:17.858Z,10072
2019-02-19T12:33:18.741Z,10616
2019-02-19T12:34:21.745Z,11572
2019-02-19T12:35:24.741Z,12428
2019-02-19T12:36:27.741Z,13332
2019-02-19T12:37:30.727Z,14172
2019-02-19T12:38:33.732Z,14644
2019-02-19T12:39:36.738Z,15564
2019-02-19T12:40:39.743Z,17300
2019-02-19T12:41:42.774Z,18784
2019-02-19T12:42:45.724Z,19904
2019-02-19T12:43:48.757Z,20800
2019-02-19T12:44:51.738Z,21664
2019-02-19T12:45:55.737Z,22976
2019-02-19T12:46:58.722Z,22848
2019-02-19T12:48:01.741Z,25824
2019-02-19T12:49:04.746Z,23328
2019-02-19T12:50:07.771Z,24832
2019-02-19T12:51:10.739Z,25984
2019-02-19T12:52:13.731Z,24512
2019-02-19T12:53:16.732Z,24224
2019-02-19T12:54:19.739Z,24000
2019-02-19T12:55:22.745Z,23360
2019-02-19T12:56:25.738Z,23296
2019-02-19T12:57:28.752Z,24352
2019-02-19T12:58:31.836Z,24960
2019-02-19T12:59:34.743Z,23104
2019-02-19T13:00:37.737Z,21856
2019-02-19T13:01:40.729Z,21760
2019-02-19T13:02:44.135Z,23424
2019-02-19T13:03:46.746Z,25056
2019-02-19T13:04:49.739Z,30496
2019-02-19T13:05:52.738Z,58304
2019-02-19T13:06:55.737Z,49120
2019-02-19T13:07:58.738Z,51520
2019-02-19T13:09:01.770Z,54528
2019-02-19T13:10:04.778Z,55008
2019-02-19T13:11:07.744Z,47680
2019-02-19T13:12:10.753Z,44768
2019-02-19T13:13:13.732Z,44480
2019-02-19T13:14:16.738Z,44928
2019-02-19T13:15:19.744Z,47296
2019-02-19T13:16:22.753Z,37344
2019-02-19T13:17:25.749Z,27296
2019-02-19T13:18:28.759Z,24384
2019-02-19T13:19:32.092Z,22432
2019-02-19T13:20:34.741Z,20608
2019-02-19T13:21:37.767Z,22400
2019-02-19T13:22:40.746Z,57728
2019-02-19T13:23:43.759Z,58976
2019-02-19T13:24:46.759Z,53056
2019-02-19T13:25:49.741Z,37056
2019-02-19T13:26:52.753Z,56480
2019-02-19T13:27:55.758Z,55424
2019-02-19T13:28:58.774Z,56672
2019-02-19T13:30:01.752Z,60832
2019-02-19T13:31:04.752Z,59648
2019-02-19T13:32:07.751Z,51296
2019-02-19T13:33:10.744Z,47008
2019-02-19T13:34:13.748Z,44608
2019-02-19T13:35:16.839Z,31552
2019-02-19T13:36:19.760Z,42752
2019-02-19T13:37:22.750Z,30048
2019-02-19T13:38:25.749Z,14928
2019-02-19T13:39:28.759Z,16988
2019-02-19T13:40:31.763Z,19264
2019-02-19T13:41:34.758Z,15628
2019-02-19T13:42:37.759Z,15904
2019-02-19T13:43:40.751Z,18400
2019-02-19T13:44:43.754Z,18816
2019-02-19T13:45:46.758Z,19328
2019-02-19T13:46:49.759Z,46144
2019-02-19T13:47:52.762Z,52544
2019-02-19T13:48:55.759Z,50720
2019-02-19T13:49:58.766Z,49408
2019-02-19T13:51:01.745Z,49088
2019-02-19T13:52:04.746Z,37088
2019-02-19T13:53:07.768Z,28672
2019-02-19T13:54:10.777Z,19840
2019-02-19T13:55:13.754Z,15828
2019-02-19T13:56:16.754Z,17344
2019-02-19T13:57:19.752Z,15368
2019-02-19T13:58:22.759Z,16276
2019-02-19T13:59:25.761Z,19936
2019-02-19T14:00:28.770Z,20064
2019-02-19T14:01:31.758Z,19840
2019-02-19T14:02:34.760Z,18688
2019-02-19T14:03:37.754Z,25184
2019-02-19T14:04:40.768Z,26432
2019-02-19T14:05:43.774Z,21216
2019-02-19T14:06:46.762Z,17632
2019-02-19T14:07:49.774Z,16956
2019-02-19T14:08:52.764Z,14976
2019-02-19T14:09:55.777Z,13352
2019-02-19T14:10:58.768Z,14416
2019-02-19T14:12:01.763Z,16620
2019-02-19T14:13:04.765Z,12064
2019-02-19T14:14:07.768Z,11028
2019-02-19T14:15:10.774Z,10820
2019-02-19T14:16:13.761Z,12060
2019-02-19T14:17:16.772Z,15684
2019-02-19T14:18:19.829Z,24224
2019-02-19T14:19:22.778Z,46240
2019-02-19T14:20:25.775Z,52096
2019-02-19T14:21:28.760Z,35808
2019-02-19T14:22:31.778Z,42176
2019-02-19T14:23:34.783Z,35904
2019-02-19T14:24:37.770Z,45088
2019-02-19T14:25:40.770Z,45216
2019-02-19T14:26:43.773Z,44160
2019-02-19T14:27:46.771Z,39360
2019-02-19T14:28:49.770Z,23552
2019-02-19T14:29:52.794Z,37984
2019-02-19T14:30:55.767Z,37504
2019-02-19T14:31:58.773Z,37408